Terminal Aerodrome Forecast
Issued by NWS

Home | Current Version | Previous Version | Graphics & Text | Print | Product List | Glossary On
Versions: 1 2 3 4 5 6 7 8 9 10 11 12 13 14 15 16 17 18 19 20 21 22 23 24 25 26
000
FTUS43 KABR 262000 AAA
TAFMBG
TAF AMD
KMBG 262027Z 2620/2718 03007KT P6SM BKN035
     FM270700 13013KT P6SM OVC050
     FM271400 15016KT 2SM -SN BR OVC020=

USA.gov is the U.S. government's official web portal to all federal, state and local government web resources and services.